sensor_id;sensor_type;location;lat;lon;timestamp;temperature;humidity
68248;SHT30;55064;49.636;12.164;2023-05-15T00:00:56;10.73;89.07
68248;SHT30;55064;49.636;12.164;2023-05-15T00:03:33;10.73;89.02
68248;SHT30;55064;49.636;12.164;2023-05-15T00:06:16;10.73;89.04
68248;SHT30;55064;49.636;12.164;2023-05-15T00:09:05;10.75;88.64
68248;SHT30;55064;49.636;12.164;2023-05-15T00:12:04;10.72;88.97
68248;SHT30;55064;49.636;12.164;2023-05-15T00:17:48;10.69;89.27
68248;SHT30;55064;49.636;12.164;2023-05-15T00:23:48;10.72;89.56
68248;SHT30;55064;49.636;12.164;2023-05-15T00:26:41;10.66;89.49
68248;SHT30;55064;49.636;12.164;2023-05-15T00:29:07;10.69;90.26
68248;SHT30;55064;49.636;12.164;2023-05-15T00:31:32;10.62;89.93
68248;SHT30;55064;49.636;12.164;2023-05-15T00:34:06;10.59;90.35
68248;SHT30;55064;49.636;12.164;2023-05-15T00:36:31;10.59;90.24
68248;SHT30;55064;49.636;12.164;2023-05-15T00:38:57;10.59;89.96
68248;SHT30;55064;49.636;12.164;2023-05-15T00:41:23;10.62;90.09
68248;SHT30;55064;49.636;12.164;2023-05-15T00:43:49;10.66;90.43
68248;SHT30;55064;49.636;12.164;2023-05-15T00:46:18;10.65;89.82
68248;SHT30;55064;49.636;12.164;2023-05-15T00:48:45;10.68;89.67
68248;SHT30;55064;49.636;12.164;2023-05-15T00:51:13;10.65;90.02
68248;SHT30;55064;49.636;12.164;2023-05-15T00:53:38;10.68;89.72
68248;SHT30;55064;49.636;12.164;2023-05-15T00:56:04;10.65;90.37
68248;SHT30;55064;49.636;12.164;2023-05-15T00:58:32;10.62;90.91
68248;SHT30;55064;49.636;12.164;2023-05-15T01:00:58;10.56;91.13
68248;SHT30;55064;49.636;12.164;2023-05-15T01:03:23;10.56;91.15
68248;SHT30;55064;49.636;12.164;2023-05-15T01:05:49;10.55;91.32
68248;SHT30;55064;49.636;12.164;2023-05-15T01:08:18;10.55;91.25
68248;SHT30;55064;49.636;12.164;2023-05-15T01:10:47;10.58;90.79
68248;SHT30;55064;49.636;12.164;2023-05-15T01:13:19;10.59;90.52
68248;SHT30;55064;49.636;12.164;2023-05-15T01:15:45;10.63;90.81
68248;SHT30;55064;49.636;12.164;2023-05-15T01:18:10;10.65;90.87
68248;SHT30;55064;49.636;12.164;2023-05-15T01:29:23;10.65;90.95
68248;SHT30;55064;49.636;12.164;2023-05-15T01:31:56;10.62;90.88
68248;SHT30;55064;49.636;12.164;2023-05-15T01:34:28;10.55;91.16
68248;SHT30;55064;49.636;12.164;2023-05-15T01:37:00;10.51;91.26
68248;SHT30;55064;49.636;12.164;2023-05-15T01:39:31;10.53;91.25
68248;SHT30;55064;49.636;12.164;2023-05-15T01:42:02;10.59;91.04
68248;SHT30;55064;49.636;12.164;2023-05-15T01:44:33;10.55;90.98
68248;SHT30;55064;49.636;12.164;2023-05-15T01:47:08;10.52;91.89
68248;SHT30;55064;49.636;12.164;2023-05-15T01:49:34;10.53;91.65
68248;SHT30;55064;49.636;12.164;2023-05-15T01:52:10;10.53;91.56
68248;SHT30;55064;49.636;12.164;2023-05-15T01:54:38;10.55;92.21
68248;SHT30;55064;49.636;12.164;2023-05-15T01:57:07;10.52;92.38
68248;SHT30;55064;49.636;12.164;2023-05-15T01:59:36;10.48;92.20
68248;SHT30;55064;49.636;12.164;2023-05-15T02:02:03;10.49;92.23
68248;SHT30;55064;49.636;12.164;2023-05-15T02:04:29;10.51;92.23
68248;SHT30;55064;49.636;12.164;2023-05-15T02:06:55;10.48;92.43
68248;SHT30;55064;49.636;12.164;2023-05-15T02:09:21;10.51;92.65
68248;SHT30;55064;49.636;12.164;2023-05-15T02:11:50;10.49;92.56
68248;SHT30;55064;49.636;12.164;2023-05-15T02:14:15;10.51;92.56
68248;SHT30;55064;49.636;12.164;2023-05-15T02:16:41;10.51;92.55
68248;SHT30;55064;49.636;12.164;2023-05-15T02:19:09;10.52;92.86
68248;SHT30;55064;49.636;12.164;2023-05-15T02:21:35;10.53;92.74
68248;SHT30;55064;49.636;12.164;2023-05-15T02:24:03;10.49;92.73
68248;SHT30;55064;49.636;12.164;2023-05-15T02:29:30;10.42;93.56
68248;SHT30;55064;49.636;12.164;2023-05-15T02:37:27;10.45;93.50
68248;SHT30;55064;49.636;12.164;2023-05-15T02:39:55;10.44;93.82
68248;SHT30;55064;49.636;12.164;2023-05-15T02:42:30;10.45;93.57
68248;SHT30;55064;49.636;12.164;2023-05-15T02:45:01;10.46;93.63
68248;SHT30;55064;49.636;12.164;2023-05-15T02:47:27;10.42;93.85
68248;SHT30;55064;49.636;12.164;2023-05-15T02:49:56;10.44;93.58
68248;SHT30;55064;49.636;12.164;2023-05-15T02:52:23;10.44;93.83
68248;SHT30;55064;49.636;12.164;2023-05-15T02:54:51;10.41;94.11
68248;SHT30;55064;49.636;12.164;2023-05-15T02:57:16;10.42;93.84
68248;SHT30;55064;49.636;12.164;2023-05-15T02:59:42;10.41;94.47
68248;SHT30;55064;49.636;12.164;2023-05-15T03:02:11;10.40;95.26
68248;SHT30;55064;49.636;12.164;2023-05-15T03:04:36;10.35;96.25
68248;SHT30;55064;49.636;12.164;2023-05-15T03:07:04;10.32;95.36
68248;SHT30;55064;49.636;12.164;2023-05-15T03:09:29;10.31;95.92
68248;SHT30;55064;49.636;12.164;2023-05-15T03:11:54;10.32;95.84
68248;SHT30;55064;49.636;12.164;2023-05-15T03:14:20;10.35;95.51
68248;SHT30;55064;49.636;12.164;2023-05-15T03:16:45;10.35;95.20
68248;SHT30;55064;49.636;12.164;2023-05-15T03:19:17;10.37;95.39
68248;SHT30;55064;49.636;12.164;2023-05-15T03:21:45;10.32;95.86
68248;SHT30;55064;49.636;12.164;2023-05-15T03:24:11;10.31;95.05
68248;SHT30;55064;49.636;12.164;2023-05-15T03:26:36;10.30;95.73
68248;SHT30;55064;49.636;12.164;2023-05-15T03:29:04;10.24;95.87
68248;SHT30;55064;49.636;12.164;2023-05-15T03:31:29;10.13;96.55
68248;SHT30;55064;49.636;12.164;2023-05-15T03:33:55;10.08;96.84
68248;SHT30;55064;49.636;12.164;2023-05-15T03:36:20;10.08;96.60
68248;SHT30;55064;49.636;12.164;2023-05-15T03:38:46;10.03;97.30
68248;SHT30;55064;49.636;12.164;2023-05-15T03:41:12;10.04;97.19
68248;SHT30;55064;49.636;12.164;2023-05-15T03:43:37;10.07;97.01
68248;SHT30;55064;49.636;12.164;2023-05-15T03:46:02;10.08;97.20
68248;SHT30;55064;49.636;12.164;2023-05-15T03:48:28;10.06;97.00
68248;SHT30;55064;49.636;12.164;2023-05-15T03:50:55;9.98;97.68
68248;SHT30;55064;49.636;12.164;2023-05-15T03:53:21;9.98;97.86
68248;SHT30;55064;49.636;12.164;2023-05-15T03:55:47;10.00;97.65
68248;SHT30;55064;49.636;12.164;2023-05-15T03:58:13;10.03;97.14
68248;SHT30;55064;49.636;12.164;2023-05-15T04:00:38;10.07;97.28
68248;SHT30;55064;49.636;12.164;2023-05-15T04:03:04;10.06;97.25
68248;SHT30;55064;49.636;12.164;2023-05-15T04:05:29;10.01;97.74
68248;SHT30;55064;49.636;12.164;2023-05-15T04:07:55;10.06;97.52
68248;SHT30;55064;49.636;12.164;2023-05-15T04:10:21;10.01;97.52
68248;SHT30;55064;49.636;12.164;2023-05-15T04:12:47;9.96;98.22
68248;SHT30;55064;49.636;12.164;2023-05-15T04:17:38;9.93;98.29
68248;SHT30;55064;49.636;12.164;2023-05-15T04:20:10;9.93;97.97
68248;SHT30;55064;49.636;12.164;2023-05-15T04:25:46;10.01;97.49
68248;SHT30;55064;49.636;12.164;2023-05-15T04:28:21;10.04;97.69
68248;SHT30;55064;49.636;12.164;2023-05-15T04:30:49;10.01;97.54
68248;SHT30;55064;49.636;12.164;2023-05-15T04:33:16;10.10;96.92
68248;SHT30;55064;49.636;12.164;2023-05-15T04:35:42;10.11;97.31
68248;SHT30;55064;49.636;12.164;2023-05-15T04:38:17;10.08;97.29
68248;SHT30;55064;49.636;12.164;2023-05-15T04:40:43;10.13;97.48
68248;SHT30;55064;49.636;12.164;2023-05-15T04:43:10;10.15;97.44
68248;SHT30;55064;49.636;12.164;2023-05-15T04:45:39;10.20;97.36
68248;SHT30;55064;49.636;12.164;2023-05-15T04:51:25;10.14;97.42
68248;SHT30;55064;49.636;12.164;2023-05-15T04:53:52;10.13;97.36
68248;SHT30;55064;49.636;12.164;2023-05-15T04:59:39;10.10;97.29
68248;SHT30;55064;49.636;12.164;2023-05-15T05:05:27;10.13;97.21
68248;SHT30;55064;49.636;12.164;2023-05-15T05:11:14;10.07;98.18
68248;SHT30;55064;49.636;12.164;2023-05-15T05:13:50;10.11;98.62
68248;SHT30;55064;49.636;12.164;2023-05-15T05:16:16;10.15;98.16
68248;SHT30;55064;49.636;12.164;2023-05-15T05:18:48;10.15;97.86
68248;SHT30;55064;49.636;12.164;2023-05-15T05:21:43;10.18;98.08
68248;SHT30;55064;49.636;12.164;2023-05-15T05:24:40;10.21;97.91
68248;SHT30;55064;49.636;12.164;2023-05-15T05:31:13;10.35;97.79
68248;SHT30;55064;49.636;12.164;2023-05-15T05:33:39;10.40;97.52
68248;SHT30;55064;49.636;12.164;2023-05-15T05:36:05;10.40;97.98
68248;SHT30;55064;49.636;12.164;2023-05-15T05:38:31;10.40;97.44
68248;SHT30;55064;49.636;12.164;2023-05-15T05:40:56;10.44;97.46
68248;SHT30;55064;49.636;12.164;2023-05-15T05:43:26;10.45;97.84
68248;SHT30;55064;49.636;12.164;2023-05-15T05:45:52;10.55;96.89
68248;SHT30;55064;49.636;12.164;2023-05-15T05:48:17;10.62;96.41
68248;SHT30;55064;49.636;12.164;2023-05-15T05:50:42;10.66;96.64
68248;SHT30;55064;49.636;12.164;2023-05-15T05:53:08;10.76;97.30
68248;SHT30;55064;49.636;12.164;2023-05-15T05:55:38;10.90;96.53
68248;SHT30;55064;49.636;12.164;2023-05-15T05:58:03;10.99;95.49
68248;SHT30;55064;49.636;12.164;2023-05-15T06:00:31;11.00;95.24
68248;SHT30;55064;49.636;12.164;2023-05-15T06:02:58;11.01;94.67
68248;SHT30;55064;49.636;12.164;2023-05-15T06:05:27;11.07;95.25
68248;SHT30;55064;49.636;12.164;2023-05-15T06:07:53;11.18;94.65
68248;SHT30;55064;49.636;12.164;2023-05-15T06:10:19;11.18;93.80
68248;SHT30;55064;49.636;12.164;2023-05-15T06:12:47;11.36;93.56
68248;SHT30;55064;49.636;12.164;2023-05-15T06:15:15;11.42;93.11
68248;SHT30;55064;49.636;12.164;2023-05-15T06:17:43;11.45;92.57
68248;SHT30;55064;49.636;12.164;2023-05-15T06:20:08;11.48;93.38
68248;SHT30;55064;49.636;12.164;2023-05-15T06:22:38;11.65;92.60
68248;SHT30;55064;49.636;12.164;2023-05-15T06:25:09;11.85;92.03
68248;SHT30;55064;49.636;12.164;2023-05-15T06:27:38;12.13;91.67
68248;SHT30;55064;49.636;12.164;2023-05-15T06:30:04;12.10;91.72
68248;SHT30;55064;49.636;12.164;2023-05-15T06:32:32;12.01;91.32
68248;SHT30;55064;49.636;12.164;2023-05-15T06:34:59;12.23;89.73
68248;SHT30;55064;49.636;12.164;2023-05-15T06:37:27;12.28;89.80
68248;SHT30;55064;49.636;12.164;2023-05-15T06:39:55;12.26;89.52
68248;SHT30;55064;49.636;12.164;2023-05-15T06:42:21;12.10;90.45
68248;SHT30;55064;49.636;12.164;2023-05-15T06:44:46;12.17;90.63
68248;SHT30;55064;49.636;12.164;2023-05-15T06:47:13;12.27;91.78
68248;SHT30;55064;49.636;12.164;2023-05-15T06:49:44;12.37;90.76
68248;SHT30;55064;49.636;12.164;2023-05-15T06:52:10;12.45;89.86
68248;SHT30;55064;49.636;12.164;2023-05-15T06:54:36;12.61;89.50
68248;SHT30;55064;49.636;12.164;2023-05-15T06:57:01;12.65;89.57
68248;SHT30;55064;49.636;12.164;2023-05-15T06:59:27;12.59;89.83
68248;SHT30;55064;49.636;12.164;2023-05-15T07:01:52;12.72;89.16
68248;SHT30;55064;49.636;12.164;2023-05-15T07:04:18;12.69;88.28
68248;SHT30;55064;49.636;12.164;2023-05-15T07:06:43;12.89;88.49
68248;SHT30;55064;49.636;12.164;2023-05-15T07:09:08;12.88;87.57
68248;SHT30;55064;49.636;12.164;2023-05-15T07:11:37;12.81;87.33
68248;SHT30;55064;49.636;12.164;2023-05-15T07:14:05;12.78;87.06
68248;SHT30;55064;49.636;12.164;2023-05-15T07:16:35;12.96;87.63
68248;SHT30;55064;49.636;12.164;2023-05-15T07:19:03;13.02;87.12
68248;SHT30;55064;49.636;12.164;2023-05-15T07:21:31;13.07;86.71
68248;SHT30;55064;49.636;12.164;2023-05-15T07:23:56;13.17;86.15
68248;SHT30;55064;49.636;12.164;2023-05-15T07:26:21;13.24;85.91
68248;SHT30;55064;49.636;12.164;2023-05-15T07:28:49;13.27;85.15
68248;SHT30;55064;49.636;12.164;2023-05-15T07:31:15;13.24;84.42
68248;SHT30;55064;49.636;12.164;2023-05-15T07:33:43;13.13;85.27
68248;SHT30;55064;49.636;12.164;2023-05-15T07:36:08;13.31;86.35
68248;SHT30;55064;49.636;12.164;2023-05-15T07:38:34;13.53;86.07
68248;SHT30;55064;49.636;12.164;2023-05-15T07:41:00;13.59;85.87
68248;SHT30;55064;49.636;12.164;2023-05-15T07:43:26;13.58;84.43
68248;SHT30;55064;49.636;12.164;2023-05-15T07:45:54;13.55;84.47
68248;SHT30;55064;49.636;12.164;2023-05-15T07:48:19;13.75;84.95
68248;SHT30;55064;49.636;12.164;2023-05-15T07:50:46;13.93;84.35
68248;SHT30;55064;49.636;12.164;2023-05-15T07:53:13;14.26;83.88
68248;SHT30;55064;49.636;12.164;2023-05-15T07:55:39;14.58;81.33
68248;SHT30;55064;49.636;12.164;2023-05-15T07:58:05;14.93;80.70
68248;SHT30;55064;49.636;12.164;2023-05-15T08:00:33;15.30;80.04
68248;SHT30;55064;49.636;12.164;2023-05-15T08:03:01;15.53;78.32
68248;SHT30;55064;49.636;12.164;2023-05-15T08:05:29;15.51;76.96
68248;SHT30;55064;49.636;12.164;2023-05-15T08:07:59;15.59;75.26
68248;SHT30;55064;49.636;12.164;2023-05-15T08:10:26;15.24;75.76
68248;SHT30;55064;49.636;12.164;2023-05-15T08:12:51;15.74;75.41
68248;SHT30;55064;49.636;12.164;2023-05-15T08:15:16;15.94;74.01
68248;SHT30;55064;49.636;12.164;2023-05-15T08:17:47;16.26;74.08
68248;SHT30;55064;49.636;12.164;2023-05-15T08:20:12;16.41;73.36
68248;SHT30;55064;49.636;12.164;2023-05-15T08:22:38;16.79;72.89
68248;SHT30;55064;49.636;12.164;2023-05-15T08:25:05;16.88;71.35
68248;SHT30;55064;49.636;12.164;2023-05-15T08:27:33;16.67;71.74
68248;SHT30;55064;49.636;12.164;2023-05-15T08:29:59;16.05;71.40
68248;SHT30;55064;49.636;12.164;2023-05-15T08:32:24;16.39;71.62
68248;SHT30;55064;49.636;12.164;2023-05-15T08:34:51;16.37;72.46
68248;SHT30;55064;49.636;12.164;2023-05-15T08:37:19;16.41;71.88
68248;SHT30;55064;49.636;12.164;2023-05-15T08:39:44;16.53;72.37
68248;SHT30;55064;49.636;12.164;2023-05-15T08:42:17;16.74;71.10
68248;SHT30;55064;49.636;12.164;2023-05-15T08:44:44;17.20;68.96
68248;SHT30;55064;49.636;12.164;2023-05-15T08:47:10;17.12;68.62
68248;SHT30;55064;49.636;12.164;2023-05-15T08:49:59;17.25;69.00
68248;SHT30;55064;49.636;12.164;2023-05-15T08:52:28;16.81;69.45
68248;SHT30;55064;49.636;12.164;2023-05-15T08:54:53;16.50;69.97
68248;SHT30;55064;49.636;12.164;2023-05-15T08:57:19;16.46;70.41
68248;SHT30;55064;49.636;12.164;2023-05-15T08:59:45;16.37;70.52
68248;SHT30;55064;49.636;12.164;2023-05-15T09:02:14;16.06;70.71
68248;SHT30;55064;49.636;12.164;2023-05-15T09:04:40;16.08;71.34
68248;SHT30;55064;49.636;12.164;2023-05-15T09:07:05;16.24;70.89
68248;SHT30;55064;49.636;12.164;2023-05-15T09:09:32;16.32;71.19
68248;SHT30;55064;49.636;12.164;2023-05-15T09:12:02;16.49;70.46
68248;SHT30;55064;49.636;12.164;2023-05-15T09:14:30;16.50;72.27
68248;SHT30;55064;49.636;12.164;2023-05-15T09:16:56;15.98;74.06
68248;SHT30;55064;49.636;12.164;2023-05-15T09:19:21;15.75;74.88
68248;SHT30;55064;49.636;12.164;2023-05-15T09:21:52;15.71;77.61
68248;SHT30;55064;49.636;12.164;2023-05-15T09:24:22;15.41;77.32
68248;SHT30;55064;49.636;12.164;2023-05-15T09:27:05;15.48;79.24
68248;SHT30;55064;49.636;12.164;2023-05-15T09:29:32;15.55;77.16
68248;SHT30;55064;49.636;12.164;2023-05-15T09:32:12;15.67;78.14
68248;SHT30;55064;49.636;12.164;2023-05-15T09:34:42;15.81;76.52
68248;SHT30;55064;49.636;12.164;2023-05-15T09:37:12;15.74;73.44
68248;SHT30;55064;49.636;12.164;2023-05-15T09:39:51;15.91;77.44
68248;SHT30;55064;49.636;12.164;2023-05-15T09:42:16;16.09;74.91
68248;SHT30;55064;49.636;12.164;2023-05-15T09:44:45;16.32;75.87
68248;SHT30;55064;49.636;12.164;2023-05-15T09:47:13;16.33;73.68
68248;SHT30;55064;49.636;12.164;2023-05-15T09:49:43;16.46;73.53
68248;SHT30;55064;49.636;12.164;2023-05-15T09:52:11;16.22;75.58
68248;SHT30;55064;49.636;12.164;2023-05-15T09:54:36;16.46;78.63
68248;SHT30;55064;49.636;12.164;2023-05-15T09:57:09;16.61;77.38
68248;SHT30;55064;49.636;12.164;2023-05-15T09:59:42;16.67;76.73
68248;SHT30;55064;49.636;12.164;2023-05-15T10:02:12;16.33;76.23
68248;SHT30;55064;49.636;12.164;2023-05-15T10:04:38;15.86;74.99
68248;SHT30;55064;49.636;12.164;2023-05-15T10:07:09;15.61;79.39
68248;SHT30;55064;49.636;12.164;2023-05-15T10:09:37;15.50;83.94
68248;SHT30;55064;49.636;12.164;2023-05-15T10:12:02;15.36;84.45
68248;SHT30;55064;49.636;12.164;2023-05-15T10:14:28;14.67;76.95
68248;SHT30;55064;49.636;12.164;2023-05-15T10:16:57;14.33;81.12
68248;SHT30;55064;49.636;12.164;2023-05-15T10:19:24;14.05;83.41
68248;SHT30;55064;49.636;12.164;2023-05-15T10:21:56;14.02;81.22
68248;SHT30;55064;49.636;12.164;2023-05-15T10:24:24;14.08;81.49
68248;SHT30;55064;49.636;12.164;2023-05-15T10:26:53;14.08;85.56
68248;SHT30;55064;49.636;12.164;2023-05-15T10:29:20;14.02;87.91
68248;SHT30;55064;49.636;12.164;2023-05-15T10:31:48;14.00;88.67
68248;SHT30;55064;49.636;12.164;2023-05-15T10:34:14;14.10;89.78
68248;SHT30;55064;49.636;12.164;2023-05-15T10:36:40;14.27;90.21
68248;SHT30;55064;49.636;12.164;2023-05-15T10:39:08;14.42;90.08
68248;SHT30;55064;49.636;12.164;2023-05-15T10:41:39;14.61;92.46
68248;SHT30;55064;49.636;12.164;2023-05-15T10:44:08;14.93;89.38
68248;SHT30;55064;49.636;12.164;2023-05-15T10:46:36;15.37;88.15
68248;SHT30;55064;49.636;12.164;2023-05-15T10:49:01;15.71;88.03
68248;SHT30;55064;49.636;12.164;2023-05-15T10:51:29;16.30;85.94
68248;SHT30;55064;49.636;12.164;2023-05-15T10:53:58;16.61;76.57
68248;SHT30;55064;49.636;12.164;2023-05-15T10:56:32;16.89;74.95
68248;SHT30;55064;49.636;12.164;2023-05-15T10:59:04;17.04;71.51
68248;SHT30;55064;49.636;12.164;2023-05-15T11:01:37;16.94;69.95
68248;SHT30;55064;49.636;12.164;2023-05-15T11:04:13;16.67;70.47
68248;SHT30;55064;49.636;12.164;2023-05-15T11:06:46;16.84;70.27
68248;SHT30;55064;49.636;12.164;2023-05-15T11:11:54;16.77;74.49
68248;SHT30;55064;49.636;12.164;2023-05-15T11:14:30;16.95;72.12
68248;SHT30;55064;49.636;12.164;2023-05-15T11:17:00;17.53;71.64
68248;SHT30;55064;49.636;12.164;2023-05-15T11:22:00;17.78;67.58
68248;SHT30;55064;49.636;12.164;2023-05-15T11:24:31;17.71;72.26
68248;SHT30;55064;49.636;12.164;2023-05-15T11:27:03;17.63;70.35
68248;SHT30;55064;49.636;12.164;2023-05-15T11:29:30;17.75;71.06
68248;SHT30;55064;49.636;12.164;2023-05-15T11:31:59;18.13;68.81
68248;SHT30;55064;49.636;12.164;2023-05-15T11:36:59;18.84;64.81
68248;SHT30;55064;49.636;12.164;2023-05-15T11:39:29;18.85;63.69
68248;SHT30;55064;49.636;12.164;2023-05-15T11:41:55;18.19;64.78
68248;SHT30;55064;49.636;12.164;2023-05-15T11:44:21;18.15;65.60
68248;SHT30;55064;49.636;12.164;2023-05-15T11:46:47;17.87;67.65
68248;SHT30;55064;49.636;12.164;2023-05-15T11:49:18;17.55;68.08
68248;SHT30;55064;49.636;12.164;2023-05-15T11:51:47;17.60;69.90
68248;SHT30;55064;49.636;12.164;2023-05-15T11:54:14;17.39;70.62
68248;SHT30;55064;49.636;12.164;2023-05-15T11:56:42;17.20;73.48
68248;SHT30;55064;49.636;12.164;2023-05-15T11:59:13;17.14;75.40
68248;SHT30;55064;49.636;12.164;2023-05-15T12:01:40;16.79;74.78
68248;SHT30;55064;49.636;12.164;2023-05-15T12:04:13;16.20;77.42
68248;SHT30;55064;49.636;12.164;2023-05-15T12:06:42;16.01;78.92
68248;SHT30;55064;49.636;12.164;2023-05-15T12:09:16;15.82;77.89
68248;SHT30;55064;49.636;12.164;2023-05-15T12:11:48;15.84;78.46
68248;SHT30;55064;49.636;12.164;2023-05-15T12:14:14;15.81;79.88
68248;SHT30;55064;49.636;12.164;2023-05-15T12:16:40;15.58;79.69
68248;SHT30;55064;49.636;12.164;2023-05-15T12:19:05;15.47;79.83
68248;SHT30;55064;49.636;12.164;2023-05-15T12:21:36;15.55;81.88
68248;SHT30;55064;49.636;12.164;2023-05-15T12:24:10;15.47;82.80
68248;SHT30;55064;49.636;12.164;2023-05-15T12:26:37;15.64;83.61
68248;SHT30;55064;49.636;12.164;2023-05-15T12:29:04;15.72;82.64
68248;SHT30;55064;49.636;12.164;2023-05-15T12:31:30;15.39;82.45
68248;SHT30;55064;49.636;12.164;2023-05-15T12:33:57;14.98;81.96
68248;SHT30;55064;49.636;12.164;2023-05-15T12:36:26;15.03;83.12
68248;SHT30;55064;49.636;12.164;2023-05-15T12:38:54;15.19;81.39
68248;SHT30;55064;49.636;12.164;2023-05-15T12:41:20;15.48;80.57
68248;SHT30;55064;49.636;12.164;2023-05-15T12:43:47;15.43;81.11
68248;SHT30;55064;49.636;12.164;2023-05-15T12:46:13;15.58;80.16
68248;SHT30;55064;49.636;12.164;2023-05-15T12:48:41;15.62;81.97
68248;SHT30;55064;49.636;12.164;2023-05-15T12:51:07;15.74;82.76
68248;SHT30;55064;49.636;12.164;2023-05-15T12:53:35;15.92;82.69
68248;SHT30;55064;49.636;12.164;2023-05-15T12:56:03;16.01;81.36
68248;SHT30;55064;49.636;12.164;2023-05-15T12:58:33;15.31;82.59
68248;SHT30;55064;49.636;12.164;2023-05-15T13:00:59;15.69;82.60
68248;SHT30;55064;49.636;12.164;2023-05-15T13:03:27;15.78;79.31
68248;SHT30;55064;49.636;12.164;2023-05-15T13:05:53;15.88;80.77
68248;SHT30;55064;49.636;12.164;2023-05-15T13:08:19;15.98;79.11
68248;SHT30;55064;49.636;12.164;2023-05-15T13:10:46;16.05;78.54
68248;SHT30;55064;49.636;12.164;2023-05-15T13:13:12;15.91;78.32
68248;SHT30;55064;49.636;12.164;2023-05-15T13:15:47;15.92;77.05
68248;SHT30;55064;49.636;12.164;2023-05-15T13:18:14;16.24;77.87
68248;SHT30;55064;49.636;12.164;2023-05-15T13:20:47;16.27;75.99
68248;SHT30;55064;49.636;12.164;2023-05-15T13:23:15;16.12;75.83
68248;SHT30;55064;49.636;12.164;2023-05-15T13:25:45;16.40;76.77
68248;SHT30;55064;49.636;12.164;2023-05-15T13:28:13;16.61;76.34
68248;SHT30;55064;49.636;12.164;2023-05-15T13:30:41;16.84;74.21
68248;SHT30;55064;49.636;12.164;2023-05-15T13:33:08;16.10;76.65
68248;SHT30;55064;49.636;12.164;2023-05-15T13:35:34;16.13;76.66
68248;SHT30;55064;49.636;12.164;2023-05-15T13:38:00;16.16;74.23
68248;SHT30;55064;49.636;12.164;2023-05-15T13:40:25;16.16;73.74
68248;SHT30;55064;49.636;12.164;2023-05-15T13:42:51;16.27;74.56
68248;SHT30;55064;49.636;12.164;2023-05-15T13:45:17;16.47;75.32
68248;SHT30;55064;49.636;12.164;2023-05-15T13:47:45;16.91;75.79
68248;SHT30;55064;49.636;12.164;2023-05-15T13:50:13;17.15;74.22
68248;SHT30;55064;49.636;12.164;2023-05-15T13:52:39;17.05;74.95
68248;SHT30;55064;49.636;12.164;2023-05-15T13:55:05;17.54;69.06
68248;SHT30;55064;49.636;12.164;2023-05-15T13:57:33;17.80;71.05
68248;SHT30;55064;49.636;12.164;2023-05-15T13:59:59;17.97;70.33
68248;SHT30;55064;49.636;12.164;2023-05-15T14:02:24;18.22;69.12
68248;SHT30;55064;49.636;12.164;2023-05-15T14:04:53;18.43;65.38
68248;SHT30;55064;49.636;12.164;2023-05-15T14:07:21;18.95;66.56
68248;SHT30;55064;49.636;12.164;2023-05-15T14:09:47;19.15;65.17
68248;SHT30;55064;49.636;12.164;2023-05-15T14:12:22;19.08;58.89
68248;SHT30;55064;49.636;12.164;2023-05-15T14:14:52;19.20;60.04
68248;SHT30;55064;49.636;12.164;2023-05-15T14:17:17;18.83;59.90
68248;SHT30;55064;49.636;12.164;2023-05-15T14:19:43;18.67;60.43
68248;SHT30;55064;49.636;12.164;2023-05-15T14:22:09;18.83;60.89
68248;SHT30;55064;49.636;12.164;2023-05-15T14:24:37;18.98;59.86
68248;SHT30;55064;49.636;12.164;2023-05-15T14:27:03;19.01;59.17
68248;SHT30;55064;49.636;12.164;2023-05-15T14:29:28;19.32;53.83
68248;SHT30;55064;49.636;12.164;2023-05-15T14:31:56;19.22;57.43
68248;SHT30;55064;49.636;12.164;2023-05-15T14:34:24;19.19;57.93
68248;SHT30;55064;49.636;12.164;2023-05-15T14:36:49;19.32;60.02
68248;SHT30;55064;49.636;12.164;2023-05-15T14:39:17;19.70;58.81
68248;SHT30;55064;49.636;12.164;2023-05-15T14:41:43;19.69;56.16
68248;SHT30;55064;49.636;12.164;2023-05-15T14:44:14;19.53;53.94
68248;SHT30;55064;49.636;12.164;2023-05-15T14:46:42;19.94;55.98
68248;SHT30;55064;49.636;12.164;2023-05-15T14:49:08;20.35;57.79
68248;SHT30;55064;49.636;12.164;2023-05-15T14:51:33;20.47;57.15
68248;SHT30;55064;49.636;12.164;2023-05-15T14:54:01;20.59;51.52
68248;SHT30;55064;49.636;12.164;2023-05-15T14:56:26;20.50;52.40
68248;SHT30;55064;49.636;12.164;2023-05-15T14:58:52;20.42;52.13
68248;SHT30;55064;49.636;12.164;2023-05-15T15:01:19;20.26;53.37
68248;SHT30;55064;49.636;12.164;2023-05-15T15:07:13;18.24;68.23
68248;SHT30;55064;49.636;12.164;2023-05-15T15:09:56;16.87;70.16
68248;SHT30;55064;49.636;12.164;2023-05-15T15:12:28;15.67;72.89
68248;SHT30;55064;49.636;12.164;2023-05-15T15:18:05;14.41;74.96
68248;SHT30;55064;49.636;12.164;2023-05-15T15:24:00;14.93;85.37
68248;SHT30;55064;49.636;12.164;2023-05-15T15:26:26;14.99;84.17
68248;SHT30;55064;49.636;12.164;2023-05-15T15:28:52;14.95;84.18
68248;SHT30;55064;49.636;12.164;2023-05-15T15:31:27;14.84;84.93
68248;SHT30;55064;49.636;12.164;2023-05-15T15:34:18;14.54;88.29
68248;SHT30;55064;49.636;12.164;2023-05-15T15:40:07;15.02;87.82
68248;SHT30;55064;49.636;12.164;2023-05-15T15:45:55;15.29;84.07
68248;SHT30;55064;49.636;12.164;2023-05-15T15:51:50;15.36;80.62
68248;SHT30;55064;49.636;12.164;2023-05-15T15:57:37;15.33;84.04
68248;SHT30;55064;49.636;12.164;2023-05-15T16:03:58;15.00;86.44
68248;SHT30;55064;49.636;12.164;2023-05-15T16:09:45;15.16;86.32
68248;SHT30;55064;49.636;12.164;2023-05-15T16:12:43;15.16;86.26
68248;SHT30;55064;49.636;12.164;2023-05-15T16:15:39;15.04;88.07
68248;SHT30;55064;49.636;12.164;2023-05-15T16:21:27;15.07;87.56
68248;SHT30;55064;49.636;12.164;2023-05-15T16:23:54;15.16;89.50
68248;SHT30;55064;49.636;12.164;2023-05-15T16:26:49;15.04;88.71
68248;SHT30;55064;49.636;12.164;2023-05-15T16:29:15;15.07;88.06
68248;SHT30;55064;49.636;12.164;2023-05-15T16:32:15;14.92;90.48
68248;SHT30;55064;49.636;12.164;2023-05-15T16:37:46;15.06;89.99
68248;SHT30;55064;49.636;12.164;2023-05-15T16:40:19;15.06;90.40
68248;SHT30;55064;49.636;12.164;2023-05-15T16:42:49;15.02;91.69
68248;SHT30;55064;49.636;12.164;2023-05-15T16:45:19;15.13;89.31
68248;SHT30;55064;49.636;12.164;2023-05-15T16:47:51;15.39;87.87
68248;SHT30;55064;49.636;12.164;2023-05-15T16:50:41;15.30;84.28
68248;SHT30;55064;49.636;12.164;2023-05-15T16:53:14;15.31;84.15
68248;SHT30;55064;49.636;12.164;2023-05-15T16:55:47;15.22;84.30